Observation data for Memphis on 09/12/2017      Previous  Date       Current Mesonet Observations  Soil Data  Daily Summary Page  Observations in Plain Language
KMES 120500Z 32002KT 19/11 A3009 RMK A01 T01880111  RH  063%=      5-min Rain = 0
KMES 120505Z 32002KT 19/11 A3008 RMK A01 T01860112  RH  064%=      5-min Rain = 0
KMES 120510Z 33002KT 18/11 A3008 RMK A01 T01820110  RH  065%=      5-min Rain = 0
KMES 120515Z 34003KT 18/11 A3008 RMK A01 T01770110  RH  067%=      5-min Rain = 0
KMES 120520Z 32002KT 18/11 A3008 RMK A01 T01760110  RH  068%=      5-min Rain = 0
KMES 120525Z 34003KT 18/11 A3008 RMK A01 T01770111  RH  068%=      5-min Rain = 0
KMES 120530Z 34003KT 18/11 A3008 RMK A01 T01760110  RH  068%=      5-min Rain = 0
KMES 120535Z 33003KT 17/11 A3008 RMK A01 T01740110  RH  068%=      5-min Rain = 0
KMES 120540Z 34003KT 17/11 A3008 RMK A01 T01730110  RH  069%=      5-min Rain = 0
KMES 120545Z 34003KT 17/11 A3008 RMK A01 T01720110  RH  069%=      5-min Rain = 0
KMES 120550Z 33003KT 17/11 A3008 RMK A01 T01720112  RH  070%=      5-min Rain = 0
KMES 120555Z 33002KT 17/11 A3007 RMK A01 T01740111  RH  069%=      5-min Rain = 0
KMES 120600Z 30002KT 18/11 A3007 RMK A01 T01750112  RH  069%=      5-min Rain = 0
KMES 120605Z 30003KT 17/11 A3007 RMK A01 T01730112  RH  070%=      5-min Rain = 0
KMES 120610Z 31003KT 17/11 A3007 RMK A01 T01700112  RH  071%=      5-min Rain = 0
KMES 120615Z 32003KT 17/11 A3007 RMK A01 T01680112  RH  072%=      5-min Rain = 0
KMES 120620Z 29003KT 17/11 A3007 RMK A01 T01690113  RH  072%=      5-min Rain = 0
KMES 120625Z 29003KT 17/11 A3007 RMK A01 T01730113  RH  071%=      5-min Rain = 0
KMES 120630Z 29003KT 17/11 A3007 RMK A01 T01730113  RH  070%=      5-min Rain = 0
KMES 120635Z 30002KT 17/11 A3007 RMK A01 T01730114  RH  070%=      5-min Rain = 0
KMES 120640Z 31001KT 17/11 A3007 RMK A01 T01710111  RH  070%=      5-min Rain = 0
KMES 120645Z 31002KT 17/11 A3007 RMK A01 T01660111  RH  072%=      5-min Rain = 0
KMES 120650Z 29002KT 16/11 A3007 RMK A01 T01640111  RH  073%=      5-min Rain = 0
KMES 120655Z 31002KT 17/11 A3007 RMK A01 T01660112  RH  073%=      5-min Rain = 0
KMES 120700Z 30002KT 17/11 A3007 RMK A01 T01660111  RH  073%=      5-min Rain = 0
KMES 120705Z 30001KT 17/11 A3007 RMK A01 T01660112  RH  073%=      5-min Rain = 0
KMES 120710Z 28001KT 17/11 A3007 RMK A01 T01650112  RH  073%=      5-min Rain = 0
KMES 120715Z 28001KT 16/11 A3007 RMK A01 T01640111  RH  073%=      5-min Rain = 0
KMES 120720Z 29001KT 16/11 A3007 RMK A01 T01590109  RH  074%=      5-min Rain = 0
KMES 120725Z 30002KT 16/11 A3007 RMK A01 T01570109  RH  076%=      5-min Rain = 0
KMES 120730Z 30002KT 16/11 A3006 RMK A01 T01570109  RH  076%=      5-min Rain = 0
KMES 120735Z 31001KT 16/11 A3007 RMK A01 T01550107  RH  076%=      5-min Rain = 0
KMES 120740Z 32002KT 15/11 A3006 RMK A01 T01540108  RH  077%=      5-min Rain = 0
KMES 120745Z 33002KT 15/11 A3006 RMK A01 T01530109  RH  078%=      5-min Rain = 0
KMES 120750Z 31002KT 15/11 A3006 RMK A01 T01530110  RH  078%=      5-min Rain = 0
KMES 120755Z 32003KT 15/11 A3006 RMK A01 T01540110  RH  078%=      5-min Rain = 0
KMES 120800Z 33003KT 15/11 A3006 RMK A01 T01540109  RH  077%=      5-min Rain = 0
KMES 120805Z 34002KT 15/11 A3006 RMK A01 T01530108  RH  077%=      5-min Rain = 0
KMES 120810Z 35002KT 15/11 A3006 RMK A01 T01510108  RH  078%=      5-min Rain = 0
KMES 120815Z 35003KT 15/11 A3005 RMK A01 T01500108  RH  078%=      5-min Rain = 0
KMES 120820Z 33002KT 15/11 A3005 RMK A01 T01500108  RH  078%=      5-min Rain = 0
KMES 120825Z 33002KT 15/11 A3005 RMK A01 T01520108  RH  078%=      5-min Rain = 0
KMES 120830Z 33003KT 15/11 A3005 RMK A01 T01520108  RH  078%=      5-min Rain = 0
KMES 120835Z 33002KT 15/11 A3005 RMK A01 T01520108  RH  078%=      5-min Rain = 0
KMES 120840Z 32002KT 15/11 A3005 RMK A01 T01530109  RH  078%=      5-min Rain = 0
KMES 120845Z 32003KT 16/11 A3005 RMK A01 T01550109  RH  077%=      5-min Rain = 0
KMES 120850Z 34002KT 15/11 A3005 RMK A01 T01540108  RH  076%=      5-min Rain = 0
KMES 120855Z 34002KT 15/11 A3005 RMK A01 T01500106  RH  078%=      5-min Rain = 0
KMES 120900Z 34002KT 15/11 A3006 RMK A01 T01480106  RH  079%=      5-min Rain = 0
KMES 120905Z 34002KT 15/11 A3006 RMK A01 T01470106  RH  079%=      5-min Rain = 0
KMES 120910Z 33002KT 15/11 A3006 RMK A01 T01470106  RH  079%=      5-min Rain = 0
KMES 120915Z 33002KT 15/11 A3005 RMK A01 T01490107  RH  079%=      5-min Rain = 0
KMES 120920Z 33002KT 15/11 A3005 RMK A01 T01510108  RH  078%=      5-min Rain = 0
KMES 120925Z 33002KT 15/11 A3005 RMK A01 T01510107  RH  077%=      5-min Rain = 0
KMES 120930Z 33003KT 15/11 A3005 RMK A01 T01520108  RH  078%=      5-min Rain = 0
KMES 120935Z 32003KT 15/11 A3005 RMK A01 T01540109  RH  077%=      5-min Rain = 0
KMES 120940Z 32003KT 15/11 A3004 RMK A01 T01540108  RH  077%=      5-min Rain = 0
KMES 120945Z 33003KT 15/11 A3004 RMK A01 T01540108  RH  077%=      5-min Rain = 0
KMES 120950Z 33003KT 15/11 A3004 RMK A01 T01530107  RH  077%=      5-min Rain = 0
KMES 120955Z 33003KT 15/11 A3004 RMK A01 T01520107  RH  077%=      5-min Rain = 0
KMES 121000Z 34002KT 15/11 A3004 RMK A01 T01510107  RH  078%=      5-min Rain = 0
KMES 121005Z 34003KT 15/11 A3004 RMK A01 T01500107  RH  078%=      5-min Rain = 0
KMES 121010Z 33003KT 15/11 A3004 RMK A01 T01490106  RH  078%=      5-min Rain = 0
KMES 121015Z 33003KT 15/11 A3004 RMK A01 T01480106  RH  079%=      5-min Rain = 0
KMES 121020Z 33003KT 15/11 A3004 RMK A01 T01480107  RH  079%=      5-min Rain = 0
KMES 121025Z 34003KT 15/11 A3004 RMK A01 T01470107  RH  079%=      5-min Rain = 0
KMES 121030Z 33003KT 15/11 A3004 RMK A01 T01450106  RH  080%=      5-min Rain = 0
KMES 121035Z 32003KT 15/11 A3004 RMK A01 T01460108  RH  080%=      5-min Rain = 0
KMES 121040Z 33003KT 15/11 A3004 RMK A01 T01480109  RH  080%=      5-min Rain = 0
KMES 121045Z 33003KT 15/11 A3004 RMK A01 T01490109  RH  080%=      5-min Rain = 0
KMES 121050Z 33003KT 15/11 A3004 RMK A01 T01490108  RH  079%=      5-min Rain = 0
KMES 121055Z 32003KT 15/11 A3004 RMK A01 T01470107  RH  080%=      5-min Rain = 0
KMES 121100Z 32003KT 15/11 A3004 RMK A01 T01480109  RH  080%=      5-min Rain = 0
KMES 121105Z 33002KT 15/11 A3004 RMK A01 T01470108  RH  080%=      5-min Rain = 0
KMES 121110Z 32002KT 15/11 A3005 RMK A01 T01460108  RH  080%=      5-min Rain = 0
KMES 121115Z 31002KT 15/11 A3004 RMK A01 T01460108  RH  081%=      5-min Rain = 0
KMES 121120Z 31002KT 15/11 A3004 RMK A01 T01460108  RH  081%=      5-min Rain = 0
KMES 121125Z 31002KT 15/11 A3004 RMK A01 T01470109  RH  081%=      5-min Rain = 0
KMES 121130Z 31002KT 15/11 A3004 RMK A01 T01470110  RH  081%=      5-min Rain = 0
KMES 121135Z 31002KT 15/11 A3004 RMK A01 T01470109  RH  081%=      5-min Rain = 0
KMES 121140Z 32002KT 15/11 A3004 RMK A01 T01460108  RH  081%=      5-min Rain = 0
KMES 121145Z 32003KT 14/11 A3004 RMK A01 T01430106  RH  081%=      5-min Rain = 0
KMES 121150Z 31003KT 14/11 A3004 RMK A01 T01410106  RH  082%=      5-min Rain = 0
KMES 121155Z 31002KT 14/11 A3004 RMK A01 T01430108  RH  083%=      5-min Rain = 0
KMES 121200Z 31003KT 14/11 A3004 RMK A01 T01440110  RH  082%=      5-min Rain = 0
KMES 121205Z 31003KT 15/11 A3004 RMK A01 T01460110  RH  082%=      5-min Rain = 0
KMES 121210Z 31002KT 15/11 A3004 RMK A01 T01460110  RH  082%=      5-min Rain = 0
KMES 121215Z 32002KT 15/11 A3004 RMK A01 T01460109  RH  081%=      5-min Rain = 0
KMES 121220Z 31002KT 14/11 A3004 RMK A01 T01440108  RH  081%=      5-min Rain = 0
KMES 121225Z 33001KT 14/11 A3004 RMK A01 T01420107  RH  082%=      5-min Rain = 0
KMES 121230Z 34002KT 14/11 A3004 RMK A01 T01410107  RH  083%=      5-min Rain = 0
KMES 121235Z 35002KT 14/11 A3004 RMK A01 T01400107  RH  083%=      5-min Rain = 0
KMES 121240Z 35002KT 14/11 A3004 RMK A01 T01390107  RH  083%=      5-min Rain = 0
KMES 121245Z 00001KT 14/11 A3004 RMK A01 T01400107  RH  084%=      5-min Rain = 0
KMES 121250Z 02001KT 14/11 A3004 RMK A01 T01410108  RH  083%=      5-min Rain = 0
KMES 121255Z 02001KT 14/11 A3004 RMK A01 T01420109  RH  083%=      5-min Rain = 0
KMES 121300Z 30000KT 15/11 A3004 RMK A01 T01450111  RH  083%=      5-min Rain = 0
KMES 121305Z 29001KT 15/11 A3004 RMK A01 T01490113  RH  082%=      5-min Rain = 0
KMES 121310Z 32001KT 15/11 A3004 RMK A01 T01530114  RH  080%=      5-min Rain = 0
KMES 121315Z 31001KT 16/12 A3004 RMK A01 T01570115  RH  079%=      5-min Rain = 0
KMES 121320Z 31001KT 16/12 A3004 RMK A01 T01620117  RH  077%=      5-min Rain = 0
KMES 121325Z 30001KT 17/12 A3005 RMK A01 T01670117  RH  075%=      5-min Rain = 0
KMES 121330Z 29002KT 17/12 A3004 RMK A01 T01700117  RH  074%=      5-min Rain = 0
KMES 121335Z 29002KT 17/12 A3004 RMK A01 T01710117  RH  073%=      5-min Rain = 0
KMES 121340Z 30001KT 17/12 A3004 RMK A01 T01740119  RH  072%=      5-min Rain = 0
KMES 121345Z 29001KT 18/12 A3004 RMK A01 T01790119  RH  071%=      5-min Rain = 0
KMES 121350Z 26001KT 18/12 A3004 RMK A01 T01840120  RH  069%=      5-min Rain = 0
KMES 121355Z 25001KT 19/12 A3004 RMK A01 T01890121  RH  067%=      5-min Rain = 0
KMES 121400Z 20000KT 19/12 A3004 RMK A01 T01940122  RH  065%=      5-min Rain = 0
KMES 121405Z 22000KT 20/12 A3004 RMK A01 T02010120  RH  062%=      5-min Rain = 0
KMES 121410Z 19001KT 20/12 A3004 RMK A01 T02040120  RH  061%=      5-min Rain = 0
KMES 121415Z 19001KT 21/12 A3004 RMK A01 T02080120  RH  059%=      5-min Rain = 0
KMES 121420Z 20001KT 21/12 A3004 RMK A01 T02120123  RH  059%=      5-min Rain = 0
KMES 121425Z 21002KT 21/12 A3004 RMK A01 T02140124  RH  059%=      5-min Rain = 0
KMES 121430Z 21001KT 21/12 A3004 RMK A01 T02140123  RH  058%=      5-min Rain = 0
KMES 121435Z 19002KT 22/12 A3004 RMK A01 T02160122  RH  057%=      5-min Rain = 0
KMES 121440Z 16002KT 22/12 A3004 RMK A01 T02180123  RH  057%=      5-min Rain = 0
KMES 121445Z 21001KT 22/13 A3004 RMK A01 T02200125  RH  057%=      5-min Rain = 0
KMES 121450Z 17001KT 22/12 A3004 RMK A01 T02220124  RH  056%=      5-min Rain = 0
KMES 121455Z 18002KT 23/12 A3004 RMK A01 T02260119  RH  052%=      5-min Rain = 0
KMES 121500Z 20001KT 23/12 A3004 RMK A01 T02290119  RH  052%=      5-min Rain = 0
KMES 121505Z 20002KT 23/12 A3004 RMK A01 T02310118  RH  051%=      5-min Rain = 0
KMES 121510Z 21003KT 23/12 A3004 RMK A01 T02320120  RH  051%=      5-min Rain = 0
KMES 121515Z 18002KT 23/12 A3004 RMK A01 T02340121  RH  051%=      5-min Rain = 0
KMES 121520Z 14002KT 24/12 A3004 RMK A01 T02390123  RH  050%=      5-min Rain = 0
KMES 121525Z 16004KT 24/12 A3004 RMK A01 T02420122  RH  049%=      5-min Rain = 0
KMES 121530Z 12004KT 24/12 A3004 RMK A01 T02440123  RH  049%=      5-min Rain = 0
KMES 121535Z 14003KT 25/12 A3004 RMK A01 T02460123  RH  048%=      5-min Rain = 0
KMES 121540Z 13002KT 25/12 A3004 RMK A01 T02490122  RH  047%=      5-min Rain = 0
KMES 121545Z 12002KT 25/12 A3004 RMK A01 T02540122  RH  045%=      5-min Rain = 0
KMES 121550Z 13003KT 26/12 A3004 RMK A01 T02550121  RH  045%=      5-min Rain = 0
KMES 121555Z 12002KT 26/12 A3004 RMK A01 T02570121  RH  044%=      5-min Rain = 0
KMES 121600Z 14004KT 26/12 A3004 RMK A01 T02580121  RH  044%=      5-min Rain = 0
KMES 121605Z 16003KT 26/12 A3004 RMK A01 T02590120  RH  044%=      5-min Rain = 0
KMES 121610Z 14004KT 26/12 A3004 RMK A01 T02610120  RH  043%=      5-min Rain = 0
KMES 121615Z 13003KT 26/12 A3004 RMK A01 T02620121  RH  043%=      5-min Rain = 0
KMES 121620Z 17002KT 26/12 A3003 RMK A01 T02630121  RH  043%=      5-min Rain = 0
KMES 121625Z 16002KT 27/12 A3003 RMK A01 T02670122  RH  042%=      5-min Rain = 0
KMES 121630Z 13003KT 27/12 A3003 RMK A01 T02710121  RH  041%=      5-min Rain = 0
KMES 121635Z 16003KT 27/12 A3002 RMK A01 T02710120  RH  040%=      5-min Rain = 0
KMES 121640Z 14004KT 27/12 A3002 RMK A01 T02720120  RH  040%=      5-min Rain = 0
KMES 121645Z 14003KT 28/12 A3002 RMK A01 T02750118  RH  039%=      5-min Rain = 0
KMES 121650Z 15004KT 28/12 A3002 RMK A01 T02770117  RH  038%=      5-min Rain = 0
KMES 121655Z 15005KT 28/12 A3002 RMK A01 T02780116  RH  038%=      5-min Rain = 0
KMES 121700Z 13005KT 28/12 A3002 RMK A01 T02800116  RH  037%=      5-min Rain = 0
KMES 121705Z 12003G9KT 28/12 A3002 RMK A01 T02800115  RH  037%=      5-min Rain = 0
KMES 121710Z 14004KT 28/12 A3001 RMK A01 T02800115  RH  037%=      5-min Rain = 0
KMES 121715Z 11005KT 28/11 A3001 RMK A01 T02810113  RH  037%=      5-min Rain = 0
KMES 121720Z 11005KT 28/11 A3001 RMK A01 T02800112  RH  036%=      5-min Rain = 0
KMES 121725Z 12003KT 28/11 A3001 RMK A01 T02810113  RH  036%=      5-min Rain = 0
KMES 121730Z 16004KT 29/11 A3001 RMK A01 T02870110  RH  035%=      5-min Rain = 0
KMES 121735Z 17004G12KT 29/11 A30 RMK A01 T02880110  RH  034%=      5-min Rain = 0
KMES 121740Z 12003G8KT 29/11 A30 RMK A01 T02920110  RH  033%=      5-min Rain = 0
KMES 121745Z 17005KT 29/11 A30 RMK A01 T02890108  RH  034%=      5-min Rain = 0
KMES 121750Z 12005KT 29/11 A30 RMK A01 T02900109  RH  034%=      5-min Rain = 0
KMES 121755Z 10001KT 29/11 A30 RMK A01 T02900110  RH  034%=      5-min Rain = 0
KMES 121800Z 32002KT 29/11 A2999 RMK A01 T02900109  RH  034%=      5-min Rain = 0
KMES 121805Z 14003KT 29/11 A2999 RMK A01 T02930107  RH  033%=      5-min Rain = 0
KMES 121810Z 10003KT 29/11 A2999 RMK A01 T02940106  RH  032%=      5-min Rain = 0
KMES 121815Z 21001G7KT 30/11 A2999 RMK A01 T02950106  RH  032%=      5-min Rain = 0
KMES 121820Z 14005KT 30/11 A2999 RMK A01 T02980106  RH  032%=      5-min Rain = 0
KMES 121825Z 15003KT 30/11 A2999 RMK A01 T02970105  RH  031%=      5-min Rain = 0
KMES 121830Z 21003KT 30/11 A2999 RMK A01 T02960105  RH  032%=      5-min Rain = 0
KMES 121835Z 15004G10KT 30/11 A2998 RMK A01 T03040107  RH  031%=      5-min Rain = 0
KMES 121840Z 12004KT 31/11 A2998 RMK A01 T03060107  RH  030%=      5-min Rain = 0
KMES 121845Z 13004G9KT 31/11 A2998 RMK A01 T03050106  RH  030%=      5-min Rain = 0
KMES 121850Z 09005KT 31/10 A2998 RMK A01 T03070104  RH  030%=      5-min Rain = 0
KMES 121855Z 09004KT 31/10 A2998 RMK A01 T03060103  RH  030%=      5-min Rain = 0
KMES 121900Z 12002KT 31/10 A2997 RMK A01 T03050103  RH  030%=      5-min Rain = 0
KMES 121905Z 10005G10KT 31/10 A2997 RMK A01 T03090102  RH  029%=      5-min Rain = 0
KMES 121910Z 09007KT 31/10 A2997 RMK A01 T03090102  RH  029%=      5-min Rain = 0
KMES 121915Z 09003KT 31/10 A2996 RMK A01 T03080101  RH  029%=      5-min Rain = 0
KMES 121920Z 15003KT 31/10 A2996 RMK A01 T03090101  RH  029%=      5-min Rain = 0
KMES 121925Z 16003KT 31/10 A2996 RMK A01 T03110100  RH  028%=      5-min Rain = 0
KMES 121930Z 12006KT 31/10 A2995 RMK A01 T03130101  RH  028%=      5-min Rain = 0
KMES 121935Z 09005KT 31/10 A2995 RMK A01 T03120102  RH  028%=      5-min Rain = 0
KMES 121940Z 11007G12KT 32/10 A2995 RMK A01 T03150100  RH  027%=      5-min Rain = 0
KMES 121945Z 17005KT 31/10 A2994 RMK A01 T03140099  RH  027%=      5-min Rain = 0
KMES 121950Z 13003KT 32/10 A2994 RMK A01 T03170100  RH  027%=      5-min Rain = 0
KMES 121955Z 13006G11KT 32/10 A2994 RMK A01 T03180102  RH  027%=      5-min Rain = 0
KMES 122000Z 14007KT 32/10 A2993 RMK A01 T03180100  RH  027%=      5-min Rain = 0
KMES 122005Z 10003KT 32/10 A2993 RMK A01 T03200102  RH  027%=      5-min Rain = 0
KMES 122010Z 13003G8KT 32/10 A2993 RMK A01 T03240102  RH  026%=      5-min Rain = 0
KMES 122015Z 14008G13KT 32/10 A2993 RMK A01 T03230101  RH  026%=      5-min Rain = 0
KMES 122020Z 14007KT 32/10 A2993 RMK A01 T03210101  RH  027%=      5-min Rain = 0
KMES 122025Z 10006KT 32/10 A2993 RMK A01 T03190102  RH  027%=      5-min Rain = 0
KMES 122030Z 09007KT 32/10 A2992 RMK A01 T03180101  RH  027%=      5-min Rain = 0
KMES 122035Z 07008KT 32/10 A2992 RMK A01 T03190100  RH  027%=      5-min Rain = 0
KMES 122040Z 09005KT 32/10 A2992 RMK A01 T03200099  RH  027%=      5-min Rain = 0
KMES 122045Z 08006G11KT 32/10 A2992 RMK A01 T03210101  RH  027%=      5-min Rain = 0
KMES 122050Z 09007G12KT 32/10 A2992 RMK A01 T03200100  RH  027%=      5-min Rain = 0
KMES 122055Z 12004KT 32/10 A2991 RMK A01 T03220100  RH  026%=      5-min Rain = 0
KMES 122100Z 12007G13KT 32/10 A2991 RMK A01 T03220100  RH  026%=      5-min Rain = 0
KMES 122105Z 07008G13KT 32/10 A2991 RMK A01 T03230100  RH  026%=      5-min Rain = 0
KMES 122110Z 12005KT 32/10 A2991 RMK A01 T03240100  RH  026%=      5-min Rain = 0
KMES 122115Z 09008KT 32/10 A2991 RMK A01 T03240100  RH  026%=      5-min Rain = 0
KMES 122120Z 11005KT 32/10 A299 RMK A01 T03180099  RH  027%=      5-min Rain = 0
KMES 122125Z 13005KT 32/10 A299 RMK A01 T03200098  RH  026%=      5-min Rain = 0
KMES 122130Z 11004G9KT 32/10 A299 RMK A01 T03220100  RH  026%=      5-min Rain = 0
KMES 122135Z 10006KT 32/10 A299 RMK A01 T03230100  RH  026%=      5-min Rain = 0
KMES 122140Z 09006KT 32/10 A299 RMK A01 T03210101  RH  027%=      5-min Rain = 0
KMES 122145Z 10007G12KT 32/10 A299 RMK A01 T03240100  RH  026%=      5-min Rain = 0
KMES 122150Z 10006KT 32/10 A299 RMK A01 T03220099  RH  026%=      5-min Rain = 0
KMES 122155Z 12005KT 32/10 A299 RMK A01 T03200099  RH  026%=      5-min Rain = 0
KMES 122200Z 09006G11KT 32/10 A2989 RMK A01 T03240100  RH  026%=      5-min Rain = 0
KMES 122205Z 07007KT 32/10 A2989 RMK A01 T03210100  RH  026%=      5-min Rain = 0
KMES 122210Z 11005G11KT 32/10 A2989 RMK A01 T03200099  RH  026%=      5-min Rain = 0
KMES 122215Z 06007G12KT 32/10 A2989 RMK A01 T03190099  RH  027%=      5-min Rain = 0
KMES 122220Z 10006G11KT 32/10 A2989 RMK A01 T03180100  RH  027%=      5-min Rain = 0
KMES 122225Z 12004G11KT 32/10 A2989 RMK A01 T03180098  RH  027%=      5-min Rain = 0
KMES 122230Z 10007KT 32/10 A2989 RMK A01 T03190099  RH  027%=      5-min Rain = 0
KMES 122235Z 10006KT 32/10 A2989 RMK A01 T03170099  RH  027%=      5-min Rain = 0
KMES 122240Z 11006KT 32/10 A2989 RMK A01 T03170098  RH  027%=      5-min Rain = 0
KMES 122245Z 08008KT 32/10 A2989 RMK A01 T03170100  RH  027%=      5-min Rain = 0
KMES 122250Z 09007G12KT 32/10 A2989 RMK A01 T03150100  RH  027%=      5-min Rain = 0
KMES 122255Z 07007G12KT 32/10 A2988 RMK A01 T03150100  RH  027%=      5-min Rain = 0
KMES 122300Z 09005KT 31/10 A2988 RMK A01 T03130101  RH  028%=      5-min Rain = 0
KMES 122305Z 10005KT 31/10 A2988 RMK A01 T03140099  RH  027%=      5-min Rain = 0
KMES 122310Z 09004KT 31/10 A2988 RMK A01 T03140100  RH  028%=      5-min Rain = 0
KMES 122315Z 09006KT 31/10 A2988 RMK A01 T03130102  RH  028%=      5-min Rain = 0
KMES 122320Z 09005KT 31/10 A2988 RMK A01 T03120102  RH  028%=      5-min Rain = 0
KMES 122325Z 10006KT 31/10 A2988 RMK A01 T03120102  RH  028%=      5-min Rain = 0
KMES 122330Z 10007KT 31/10 A2988 RMK A01 T03110101  RH  028%=      5-min Rain = 0
KMES 122335Z 10006KT 31/10 A2988 RMK A01 T03100101  RH  028%=      5-min Rain = 0
KMES 122340Z 10005KT 31/10 A2988 RMK A01 T03100102  RH  029%=      5-min Rain = 0
KMES 122345Z 09005KT 31/10 A2988 RMK A01 T03090103  RH  029%=      5-min Rain = 0
KMES 122350Z 11005KT 31/10 A2988 RMK A01 T03080102  RH  029%=      5-min Rain = 0
KMES 122355Z 10005KT 31/10 A2988 RMK A01 T03090102  RH  029%=      5-min Rain = 0
KMES 130000Z 09005KT 31/10 A2988 RMK A01 T03070103  RH  029%=      5-min Rain = 0
KMES 130005Z 09005KT 31/10 A2988 RMK A01 T03050104  RH  030%=      5-min Rain = 0
KMES 130010Z 08005KT 30/11 A2988 RMK A01 T03030105  RH  030%=      5-min Rain = 0
KMES 130015Z 08004KT 30/11 A2988 RMK A01 T03020106  RH  031%=      5-min Rain = 0
KMES 130020Z 08005KT 30/11 A2987 RMK A01 T03000106  RH  031%=      5-min Rain = 0
KMES 130025Z 09004KT 30/11 A2987 RMK A01 T02980107  RH  032%=      5-min Rain = 0
KMES 130030Z 09004KT 30/11 A2987 RMK A01 T02960107  RH  032%=      5-min Rain = 0
KMES 130035Z 09006KT 29/11 A2988 RMK A01 T02930105  RH  032%=      5-min Rain = 0
KMES 130040Z 10005KT 29/11 A2987 RMK A01 T02910105  RH  033%=      5-min Rain = 0
KMES 130045Z 09005KT 29/10 A2987 RMK A01 T02880104  RH  033%=      5-min Rain = 0
KMES 130050Z 10004KT 28/10 A2987 RMK A01 T02840104  RH  034%=      5-min Rain = 0
KMES 130055Z 09005KT 28/10 A2988 RMK A01 T02810104  RH  034%=      5-min Rain = 0
KMES 130100Z 09005KT 28/11 A2988 RMK A01 T02780105  RH  035%=      5-min Rain = 0
KMES 130105Z 09005KT 28/10 A2988 RMK A01 T02760104  RH  035%=      5-min Rain = 0
KMES 130110Z 09004KT 27/10 A2988 RMK A01 T02720103  RH  036%=      5-min Rain = 0
KMES 130115Z 09004KT 27/10 A2988 RMK A01 T02690103  RH  036%=      5-min Rain = 0
KMES 130120Z 09004KT 27/10 A2988 RMK A01 T02660103  RH  037%=      5-min Rain = 0
KMES 130125Z 09004KT 26/10 A2988 RMK A01 T02630102  RH  038%=      5-min Rain = 0
KMES 130130Z 09004KT 26/10 A2988 RMK A01 T02600102  RH  038%=      5-min Rain = 0
KMES 130135Z 09004KT 26/10 A2988 RMK A01 T02570101  RH  039%=      5-min Rain = 0
KMES 130140Z 09004KT 26/10 A2988 RMK A01 T02550101  RH  039%=      5-min Rain = 0
KMES 130145Z 09004KT 25/10 A2988 RMK A01 T02530100  RH  039%=      5-min Rain = 0
KMES 130150Z 10003KT 25/10 A2988 RMK A01 T02520098  RH  039%=      5-min Rain = 0
KMES 130155Z 09003KT 25/10 A2988 RMK A01 T02520098  RH  039%=      5-min Rain = 0
KMES 130200Z 09003KT 25/10 A2988 RMK A01 T02510098  RH  039%=      5-min Rain = 0
KMES 130205Z 08003KT 25/10 A2989 RMK A01 T02510098  RH  039%=      5-min Rain = 0
KMES 130210Z 08002KT 25/10 A2989 RMK A01 T02480100  RH  041%=      5-min Rain = 0
KMES 130215Z 08003KT 24/10 A2989 RMK A01 T02440101  RH  042%=      5-min Rain = 0
KMES 130220Z 07003KT 24/10 A2989 RMK A01 T02420101  RH  042%=      5-min Rain = 0
KMES 130225Z 08003KT 24/10 A2989 RMK A01 T02400101  RH  043%=      5-min Rain = 0
KMES 130230Z 08003KT 24/10 A2989 RMK A01 T02390101  RH  043%=      5-min Rain = 0
KMES 130235Z 07003KT 24/10 A2989 RMK A01 T02360103  RH  044%=      5-min Rain = 0
KMES 130240Z 06004KT 23/10 A2989 RMK A01 T02300103  RH  046%=      5-min Rain = 0
KMES 130245Z 06005KT 23/11 A2989 RMK A01 T02250105  RH  048%=      5-min Rain = 0
KMES 130250Z 07004KT 22/10 A2989 RMK A01 T02240104  RH  048%=      5-min Rain = 0
KMES 130255Z 08003KT 23/10 A299 RMK A01 T02260103  RH  047%=      5-min Rain = 0
KMES 130300Z 05001KT 23/10 A299 RMK A01 T02270103  RH  047%=      5-min Rain = 0
KMES 130305Z 36001KT 23/10 A299 RMK A01 T02260104  RH  048%=      5-min Rain = 0
KMES 130310Z 01000KT 23/10 A299 RMK A01 T02250104  RH  048%=      5-min Rain = 0
KMES 130315Z 35000KT 23/10 A299 RMK A01 T02260104  RH  048%=      5-min Rain = 0
KMES 130320Z 04001KT 23/11 A299 RMK A01 T02260105  RH  048%=      5-min Rain = 0
KMES 130325Z 05002KT 22/11 A299 RMK A01 T02180105  RH  051%=      5-min Rain = 0
KMES 130330Z 06003KT 21/11 A299 RMK A01 T02140105  RH  051%=      5-min Rain = 0
KMES 130335Z 07004KT 21/11 A299 RMK A01 T02130105  RH  052%=      5-min Rain = 0
KMES 130340Z 08004KT 22/11 A299 RMK A01 T02170106  RH  051%=      5-min Rain = 0
KMES 130345Z 07004KT 22/11 A299 RMK A01 T02150105  RH  051%=      5-min Rain = 0
KMES 130350Z 07004KT 21/11 A299 RMK A01 T02090105  RH  053%=      5-min Rain = 0
KMES 130355Z 08004KT 21/10 A299 RMK A01 T02060104  RH  054%=      5-min Rain = 0
KMES 130400Z 09004KT 21/11 A299 RMK A01 T02080107  RH  054%=      5-min Rain = 0
KMES 130405Z 09004KT 21/11 A299 RMK A01 T02090106  RH  054%=      5-min Rain = 0
KMES 130410Z 07002KT 21/11 A299 RMK A01 T02080107  RH  054%=      5-min Rain = 0
KMES 130415Z 07000KT 21/11 A2991 RMK A01 T02070106  RH  054%=      5-min Rain = 0
KMES 130420Z 04001KT 21/10 A2991 RMK A01 T02070104  RH  054%=      5-min Rain = 0
KMES 130425Z 03003KT 20/10 A2991 RMK A01 T02020104  RH  055%=      5-min Rain = 0
KMES 130430Z 32002KT 20/11 A2991 RMK A01 T02010105  RH  056%=      5-min Rain = 0
KMES 130435Z 29004KT 20/11 A2991 RMK A01 T02030106  RH  056%=      5-min Rain = 0
KMES 130440Z 32003KT 20/11 A2991 RMK A01 T02020107  RH  056%=      5-min Rain = 0
KMES 130445Z 31002KT 20/11 A2991 RMK A01 T02000106  RH  056%=      5-min Rain = 0
KMES 130450Z 28003KT 20/11 A2991 RMK A01 T02010106  RH  056%=      5-min Rain = 0
KMES 130455Z 30004KT 20/11 A2991 RMK A01 T02000107  RH  057%=      5-min Rain = 0

Page generated in 0.009 seconds.